This is the latest recevied weather packets stored in our database for station/object DELTON-WX. If no packets are shown the sender has not sent any weather packets the latest 1 day(s).
| Time | Temp. | Humidity | Pressure | Rain* | Wind** | Luminosity | Snow |
|---|---|---|---|---|---|---|---|
| 1778023863 | 10.56° C | 37% | 976.3 hPa | 0 mm | 3.58 m/s, 298° | - | - |
| 1778022947 | 10.56° C | 37% | 976.3 hPa | 0 mm | 4.02 m/s, 296° | - | - |
| 1778022074 | 10.56° C | 37% | 976.3 hPa | 0 mm | 4.47 m/s, 294° | - | - |
| 1778021147 | 10.56° C | 37% | 976.3 hPa | 0 mm | 4.92 m/s, 295° | - | - |
| 1778020266 | 11.11° C | 39% | 976.6 hPa | 0 mm | 5.36 m/s, 293° | - | - |
| 1778019346 | 11.67° C | 39% | 976.7 hPa | 0 mm | 5.36 m/s, 290° | - | - |
| 1778018477 | 11.67° C | 39% | 976.7 hPa | 0 mm | 5.36 m/s, 287° | - | - |
| 1778017546 | 11.67° C | 39% | 976.4 hPa | 0 mm | 5.36 m/s, 286° | - | - |
| 1778016666 | 11.67° C | 40% | 976.3 hPa | 0 mm | 5.81 m/s, 283° | - | - |
| 1778015745 | 11.67° C | 40% | 976.3 hPa | 0 mm | 5.81 m/s, 281° | - | - |
| 1778014879 | 11.67° C | 40% | 976.3 hPa | 0 mm | 5.81 m/s, 282° | - | - |
| 1778013946 | 11.67° C | 38% | 976.6 hPa | 0 mm | 5.81 m/s, 281° | - | - |
| 1778013067 | 11.67° C | 37% | 975.9 hPa | 0 mm | 5.81 m/s, 281° | - | - |
| 1778012146 | 11.67° C | 33% | 975.5 hPa | 0 mm | 5.81 m/s, 280° | - | - |
| 1778011275 | 12.22° C | 33% | 975.5 hPa | 0 mm | 5.81 m/s, 280° | - | - |
| 1778010345 | 12.22° C | 39% | 975.5 hPa | 0 mm | 5.81 m/s, 276° | - | - |
| 1778009462 | 12.22° C | 39% | 975.5 hPa | 0 mm | 5.81 m/s, 270° | - | - |
| 1778008548 | 12.22° C | 39% | 975.5 hPa | 0 mm | 5.36 m/s, 268° | - | - |
| 1778007675 | 12.22° C | 39% | 975.5 hPa | 0 mm | 5.36 m/s, 266° | - | - |
| 1778006748 | 12.22° C | 44% | 975.9 hPa | 0 mm | 5.36 m/s, 268° | - | - |
| 1778005871 | 12.22° C | 43% | 975.1 hPa | 0 mm | 4.92 m/s, 267° | - | - |
| 1778004948 | 11.67° C | 43% | 975.2 hPa | 0 mm | 4.47 m/s, 265° | - | - |
| 1778004082 | 11.11° C | 43% | 975.2 hPa | 0 mm | 4.47 m/s, 266° | - | - |
| 1778003148 | 11.67° C | 48% | 974.6 hPa | 0 mm | 4.92 m/s, 266° | - | - |
| 1778002264 | 10° C | 47% | 973.9 hPa | 0 mm | 3.58 m/s, 266° | - | - |
* Rain latest hour (hover to see other rain measurements)
** Current wind speed in m/s (hover to see current wind gust speed)